Terminal Aerodrome Forecast
Issued by NWS

Home | Current Version | Previous Version | Text Only | Print | Product List | Glossary On
Versions: 1 2 3 4 5 6 7 8 9 10 11 12 13
000
FTUS46 KPDT 200500
TAFALW
TAF
KALW 200523Z 2006/2106 20013KT P6SM BKN080
      TEMPO 2006/2008 -SHRA
     FM201500 22014KT P6SM SCT080
     FM202000 23014KT P6SM SKC=

USA.gov is the U.S. government's official web portal to all federal, state and local government web resources and services.